createdAt,value
2022-09-07T00:00:15.000Z,2.6
2022-09-07T00:05:10.000Z,2.9
2022-09-07T00:10:04.000Z,2.8
2022-09-07T00:14:59.000Z,4.2
2022-09-07T00:19:54.000Z,8.5
2022-09-07T00:24:48.000Z,6.7
2022-09-07T00:29:42.000Z,10
2022-09-07T00:34:37.000Z,7.2
2022-09-07T00:39:31.000Z,7.1
2022-09-07T00:44:24.000Z,5
2022-09-07T01:23:41.000Z,9.4
2022-09-07T01:28:35.000Z,4.8
2022-09-07T01:33:30.000Z,5.7
2022-09-07T01:38:25.000Z,5.5
2022-09-07T01:43:19.000Z,5.6
2022-09-07T01:48:14.000Z,4.3
2022-09-07T01:53:09.000Z,5.7
2022-09-07T01:58:04.000Z,8.5
2022-09-07T02:02:58.000Z,7
2022-09-07T02:07:53.000Z,5.8
2022-09-07T02:12:48.000Z,6.4
2022-09-07T02:17:42.000Z,6
2022-09-07T02:22:35.000Z,9.4
2022-09-07T02:27:30.000Z,8.9
2022-09-07T02:32:23.000Z,8
2022-09-07T02:37:18.000Z,8.4
2022-09-07T02:42:13.000Z,10.4
2022-09-07T02:47:08.000Z,8.8
2022-09-07T02:52:02.000Z,9.9
2022-09-07T02:56:57.000Z,10.3
2022-09-07T03:01:51.000Z,7.9
2022-09-07T03:06:46.000Z,7.9
2022-09-07T03:11:41.000Z,10.3
2022-09-07T03:16:36.000Z,9
2022-09-07T03:21:30.000Z,7.7
2022-09-07T03:26:25.000Z,6.6
2022-09-07T03:31:19.000Z,8.7
2022-09-07T03:36:14.000Z,6.4
2022-09-07T03:41:08.000Z,6.1
2022-09-07T03:46:02.000Z,7.4
2022-09-07T03:50:57.000Z,7.6
2022-09-07T03:55:52.000Z,6.3
2022-09-07T04:00:45.000Z,7.3
2022-09-07T04:05:40.000Z,7.1
2022-09-07T04:10:35.000Z,7
2022-09-07T04:15:30.000Z,6.6
2022-09-07T04:20:24.000Z,7.6
2022-09-07T04:25:19.000Z,10.3
2022-09-07T04:30:14.000Z,9.5
2022-09-07T04:35:08.000Z,10.1
2022-09-07T04:40:03.000Z,10.3
2022-09-07T04:44:58.000Z,8.9
2022-09-07T04:49:52.000Z,11.2
2022-09-07T04:54:47.000Z,12.2
2022-09-07T04:59:41.000Z,9.3
2022-09-07T05:04:36.000Z,9.8
2022-09-07T05:09:29.000Z,11
2022-09-07T05:14:24.000Z,9.1
2022-09-07T05:19:19.000Z,8.6
2022-09-07T05:24:13.000Z,8.1
2022-09-07T05:34:02.000Z,9.2
2022-09-07T05:38:56.000Z,9.1
2022-09-07T05:43:51.000Z,10
2022-09-07T05:48:46.000Z,7.6
2022-09-07T05:53:41.000Z,7.9
2022-09-07T05:58:35.000Z,8.6
2022-09-07T06:03:30.000Z,6.6
2022-09-07T06:13:20.000Z,8.3
2022-09-07T06:18:14.000Z,11.1
2022-09-07T06:23:09.000Z,7.6
2022-09-07T06:28:04.000Z,8.3
2022-09-07T06:32:57.000Z,8.7
2022-09-07T06:37:52.000Z,6.8
2022-09-07T06:42:47.000Z,8.1
2022-09-07T06:47:42.000Z,6
2022-09-07T06:52:36.000Z,6.8
2022-09-07T06:57:31.000Z,6.8
2022-09-07T07:02:26.000Z,5.9
2022-09-07T07:07:21.000Z,7.2
2022-09-07T07:17:11.000Z,6.1
2022-09-07T07:22:06.000Z,6.4
2022-09-07T07:27:01.000Z,7.9
2022-09-07T07:31:55.000Z,8
2022-09-07T07:36:50.000Z,4.3
2022-09-07T07:46:40.000Z,7.5
2022-09-07T07:51:35.000Z,6.2
2022-09-07T07:56:30.000Z,10.5
2022-09-07T08:01:25.000Z,6.8
2022-09-07T08:06:20.000Z,11
2022-09-07T08:11:15.000Z,9.7
2022-09-07T08:16:09.000Z,8.1
2022-09-07T08:21:04.000Z,7.7
2022-09-07T08:25:59.000Z,8.2
2022-09-07T08:30:54.000Z,6.9
2022-09-07T08:35:48.000Z,6.3
2022-09-07T08:40:43.000Z,7.8
2022-09-07T08:45:37.000Z,6.4
2022-09-07T08:50:31.000Z,4.4
2022-09-07T08:55:26.000Z,5.8
2022-09-07T09:00:21.000Z,6.3
2022-09-07T09:05:16.000Z,5.4
2022-09-07T09:10:11.000Z,5.1
2022-09-07T09:15:06.000Z,4.8
2022-09-07T09:20:01.000Z,7.8
2022-09-07T09:24:56.000Z,6
2022-09-07T09:29:51.000Z,4
2022-09-07T09:34:46.000Z,6
2022-09-07T09:39:41.000Z,5.8
2022-09-07T09:44:35.000Z,3.9
2022-09-07T09:49:30.000Z,8
2022-09-07T09:54:24.000Z,3.5
2022-09-07T09:59:19.000Z,5.8
2022-09-07T10:04:15.000Z,4.4
2022-09-07T10:09:10.000Z,5
2022-09-07T10:14:04.000Z,4.5
2022-09-07T10:18:59.000Z,3.8
2022-09-07T10:23:56.000Z,4.4
2022-09-07T10:28:53.000Z,5.2
2022-09-07T10:33:47.000Z,3.8
2022-09-07T10:38:42.000Z,3.8
2022-09-07T10:43:37.000Z,6.8
2022-09-07T10:53:27.000Z,5.2
2022-09-07T10:58:23.000Z,3.6
2022-09-07T11:03:19.000Z,4.7
2022-09-07T11:08:14.000Z,4.6
2022-09-07T11:13:07.000Z,6.8
2022-09-07T11:18:02.000Z,4.2
2022-09-07T11:27:52.000Z,5.4
2022-09-07T11:32:48.000Z,4.4
2022-09-07T11:37:43.000Z,4
2022-09-07T11:42:38.000Z,3.5
2022-09-07T11:47:33.000Z,4.3
2022-09-07T11:52:27.000Z,5.3
2022-09-07T11:57:22.000Z,5
2022-09-07T12:02:17.000Z,5.3
2022-09-07T12:07:11.000Z,3.7
2022-09-07T12:12:06.000Z,4.1
2022-09-07T12:17:01.000Z,2.9
2022-09-07T12:21:55.000Z,2.7
2022-09-07T12:26:49.000Z,4.3
2022-09-07T12:31:44.000Z,2.9
2022-09-07T12:36:38.000Z,3.8
2022-09-07T12:41:32.000Z,2.3
2022-09-07T12:46:27.000Z,2.6
2022-09-07T12:51:22.000Z,2.2
2022-09-07T12:56:17.000Z,3.7
2022-09-07T13:01:12.000Z,3
2022-09-07T13:06:08.000Z,2
2022-09-07T13:11:03.000Z,1.7
2022-09-07T13:15:58.000Z,3.1
2022-09-07T13:20:52.000Z,3.3
2022-09-07T13:25:46.000Z,2.4
2022-09-07T13:30:42.000Z,2.4
2022-09-07T13:35:37.000Z,2.7
2022-09-07T13:40:32.000Z,3.6
2022-09-07T13:45:28.000Z,3
2022-09-07T13:50:23.000Z,3.8
2022-09-07T13:55:18.000Z,1.9
2022-09-07T14:00:12.000Z,2.2
2022-09-07T14:05:07.000Z,2.7
2022-09-07T14:10:01.000Z,3
2022-09-07T14:14:56.000Z,2.4
2022-09-07T14:19:51.000Z,1.9
2022-09-07T14:24:46.000Z,1.3
2022-09-07T14:29:40.000Z,2.4
2022-09-07T14:34:34.000Z,1.6
2022-09-07T14:39:29.000Z,2.1
2022-09-07T14:44:22.000Z,2
2022-09-07T14:49:16.000Z,2.4
2022-09-07T14:54:10.000Z,2.3
2022-09-07T14:59:04.000Z,3.2
2022-09-07T15:03:57.000Z,1.5
2022-09-07T15:08:51.000Z,1.4
2022-09-07T15:13:45.000Z,2.5
2022-09-07T15:18:40.000Z,2.3
2022-09-07T15:23:35.000Z,1.9
2022-09-07T15:28:29.000Z,3.3
2022-09-07T15:33:24.000Z,2
2022-09-07T15:38:19.000Z,2.7
2022-09-07T15:43:15.000Z,1.6
2022-09-07T15:48:08.000Z,2.3
2022-09-07T15:53:03.000Z,2.8
2022-09-07T15:57:58.000Z,2.1
2022-09-07T16:02:53.000Z,2.8
2022-09-07T16:07:48.000Z,2.4
2022-09-07T16:12:44.000Z,2.1
2022-09-07T16:17:38.000Z,1.7
2022-09-07T16:22:32.000Z,2.3
2022-09-07T16:27:26.000Z,3.5
2022-09-07T16:32:20.000Z,2.5
2022-09-07T16:37:14.000Z,2.8
2022-09-07T16:47:03.000Z,2.6
2022-09-07T16:51:56.000Z,1.8
2022-09-07T16:56:50.000Z,4.1
2022-09-07T17:01:44.000Z,2.7
2022-09-07T17:06:39.000Z,2.7
2022-09-07T17:11:34.000Z,1.9
2022-09-07T17:16:27.000Z,2.6
2022-09-07T17:21:22.000Z,10.8
2022-09-07T17:26:18.000Z,3.5
2022-09-07T17:31:13.000Z,3.5
2022-09-07T17:36:06.000Z,3
2022-09-07T17:41:00.000Z,2.3
2022-09-07T17:45:55.000Z,3.4
2022-09-07T17:50:49.000Z,2.9
2022-09-07T17:55:43.000Z,2.8
2022-09-07T18:00:37.000Z,4
2022-09-07T18:05:31.000Z,3.6
2022-09-07T18:10:26.000Z,4.2
2022-09-07T18:15:21.000Z,4.7
2022-09-07T18:20:15.000Z,2.3
2022-09-07T18:25:10.000Z,3.3
2022-09-07T18:30:04.000Z,2.7
2022-09-07T18:34:59.000Z,2.3
2022-09-07T18:39:56.000Z,4.3
2022-09-07T18:49:43.000Z,2.4
2022-09-07T18:54:37.000Z,3.2
2022-09-07T18:59:31.000Z,3.1
2022-09-07T19:09:23.000Z,3
2022-09-07T19:14:15.000Z,2.7
2022-09-07T19:19:09.000Z,5.4
2022-09-07T19:24:04.000Z,4.5
2022-09-07T19:28:59.000Z,3.2
2022-09-07T19:33:54.000Z,4.2
2022-09-07T19:38:48.000Z,2.3
2022-09-07T19:43:43.000Z,2.4
2022-09-07T19:48:38.000Z,3.3
2022-09-07T19:53:32.000Z,7.8
2022-09-07T19:58:26.000Z,5.4
2022-09-07T20:03:21.000Z,4.9
2022-09-07T20:08:16.000Z,3.3
2022-09-07T20:13:10.000Z,2.6
2022-09-07T20:18:05.000Z,4.3
2022-09-07T20:23:00.000Z,4.5
2022-09-07T20:27:54.000Z,3.1
2022-09-07T20:32:49.000Z,3
2022-09-07T20:37:44.000Z,3.1
2022-09-07T20:42:41.000Z,4.6
2022-09-07T20:47:31.000Z,2.5
2022-09-07T20:52:24.000Z,5.2
2022-09-07T20:57:19.000Z,2.4
2022-09-07T21:02:13.000Z,4.8
2022-09-07T21:07:08.000Z,4
2022-09-07T21:12:03.000Z,3.7
2022-09-07T21:16:57.000Z,2.3
2022-09-07T21:21:52.000Z,4
2022-09-07T21:26:47.000Z,2.5
2022-09-07T21:31:41.000Z,2.9
2022-09-07T21:36:36.000Z,3.1
2022-09-07T21:41:31.000Z,1.9
2022-09-07T21:46:25.000Z,3.3
2022-09-07T21:51:20.000Z,3
2022-09-07T21:56:14.000Z,6.2
2022-09-07T22:01:09.000Z,2.4
2022-09-07T22:06:03.000Z,2.2
2022-09-07T22:10:58.000Z,3.9
2022-09-07T22:15:53.000Z,1.9
2022-09-07T22:20:47.000Z,2.6
2022-09-07T22:25:40.000Z,2.3
2022-09-07T22:30:34.000Z,2.1
2022-09-07T22:35:29.000Z,1.7
2022-09-07T22:40:24.000Z,2.3
2022-09-07T22:45:19.000Z,3
2022-09-07T22:50:14.000Z,4
2022-09-07T22:55:09.000Z,4.1
2022-09-07T23:00:03.000Z,5.8
2022-09-07T23:04:57.000Z,3.9
2022-09-07T23:09:52.000Z,3.5
2022-09-07T23:19:41.000Z,5.2
2022-09-07T23:24:35.000Z,3.7
2022-09-07T23:29:30.000Z,3.2
2022-09-07T23:34:24.000Z,2.4
2022-09-07T23:39:19.000Z,3.1
2022-09-07T23:44:13.000Z,3.5
2022-09-07T23:49:08.000Z,3.5
2022-09-07T23:54:03.000Z,3.1
2022-09-07T23:58:58.000Z,4.7
